sensor_id;sensor_type;location;lat;lon;timestamp;pressure;altitude;pressure_sealevel;temperature;humidity
21869;BME280;11099;41.564;23.296;2022-09-01T00:02:14;97299.13;;;22.05;79.56
21869;BME280;11099;41.564;23.296;2022-09-01T00:04:42;97244.41;;;21.28;78.92
21869;BME280;11099;41.564;23.296;2022-09-01T00:07:09;97293.97;;;21.47;80.94
21869;BME280;11099;41.564;23.296;2022-09-01T00:09:36;97195.09;;;20.76;82.35
21869;BME280;11099;41.564;23.296;2022-09-01T00:12:04;97297.44;;;21.33;82.38
21869;BME280;11099;41.564;23.296;2022-09-01T00:14:33;97223.44;;;21.08;80.61
21869;BME280;11099;41.564;23.296;2022-09-01T00:17:02;97297.56;;;21.83;80.51
21869;BME280;11099;41.564;23.296;2022-09-01T00:19:28;97272.34;;;21.57;80.46
21869;BME280;11099;41.564;23.296;2022-09-01T00:21:54;97290.88;;;21.38;81.60
21869;BME280;11099;41.564;23.296;2022-09-01T00:24:20;97298.19;;;21.37;82.42
21869;BME280;11099;41.564;23.296;2022-09-01T00:26:46;97258.59;;;20.93;83.08
21869;BME280;11099;41.564;23.296;2022-09-01T00:29:12;97215.72;;;20.33;85.67
21869;BME280;11099;41.564;23.296;2022-09-01T00:31:38;97293.88;;;21.22;84.43
21869;BME280;11099;41.564;23.296;2022-09-01T00:34:04;97191.16;;;20.56;84.58
21869;BME280;11099;41.564;23.296;2022-09-01T00:36:29;97232.34;;;21.12;82.51
21869;BME280;11099;41.564;23.296;2022-09-01T00:38:55;97294.81;;;21.69;80.03
21869;BME280;11099;41.564;23.296;2022-09-01T00:41:25;97298.31;;;21.73;79.97
21869;BME280;11099;41.564;23.296;2022-09-01T00:43:56;97294.59;;;21.12;82.02
21869;BME280;11099;41.564;23.296;2022-09-01T00:46:33;97261.84;;;20.58;83.05
21869;BME280;11099;41.564;23.296;2022-09-01T00:49:05;97290.25;;;20.93;82.90
21869;BME280;11099;41.564;23.296;2022-09-01T00:51:34;97258.53;;;20.86;82.09
21869;BME280;11099;41.564;23.296;2022-09-01T00:54:04;97173.63;;;20.36;82.24
21869;BME280;11099;41.564;23.296;2022-09-01T00:56:31;97281.84;;;21.12;81.77
21869;BME280;11099;41.564;23.296;2022-09-01T00:58:58;97138.41;;;20.21;81.13
21869;BME280;11099;41.564;23.296;2022-09-01T01:01:24;97194.22;;;20.55;81.86
21869;BME280;11099;41.564;23.296;2022-09-01T01:03:49;97166.22;;;20.22;82.26
21869;BME280;11099;41.564;23.296;2022-09-01T01:06:16;97161.03;;;19.99;83.06
21869;BME280;11099;41.564;23.296;2022-09-01T01:08:45;97238.66;;;20.50;83.29
21869;BME280;11099;41.564;23.296;2022-09-01T01:11:22;97262.69;;;20.66;83.33
21869;BME280;11099;41.564;23.296;2022-09-01T01:14:02;97269.47;;;20.45;83.81
21869;BME280;11099;41.564;23.296;2022-09-01T01:16:35;97179.28;;;20.13;82.55
21869;BME280;11099;41.564;23.296;2022-09-01T01:19:01;97267.09;;;21.02;80.74
21869;BME280;11099;41.564;23.296;2022-09-01T01:21:38;97236.13;;;20.86;81.48
21869;BME280;11099;41.564;23.296;2022-09-01T01:24:28;97226.88;;;20.94;81.15
21869;BME280;11099;41.564;23.296;2022-09-01T01:26:55;97213.25;;;20.76;81.51
21869;BME280;11099;41.564;23.296;2022-09-01T01:29:35;97265.28;;;21.21;80.85
21869;BME280;11099;41.564;23.296;2022-09-01T01:32:04;97271.41;;;21.11;82.83
21869;BME280;11099;41.564;23.296;2022-09-01T01:34:38;97276.47;;;21.23;82.41
21869;BME280;11099;41.564;23.296;2022-09-01T01:37:08;97252.78;;;20.33;86.20
21869;BME280;11099;41.564;23.296;2022-09-01T01:39:35;97286.72;;;19.48;91.71
21869;BME280;11099;41.564;23.296;2022-09-01T01:42:05;97283.06;;;19.64;91.24
21869;BME280;11099;41.564;23.296;2022-09-01T01:44:35;97256.03;;;19.60;90.90
21869;BME280;11099;41.564;23.296;2022-09-01T01:47:04;97146.25;;;18.63;92.95
21869;BME280;11099;41.564;23.296;2022-09-01T01:49:34;97287.75;;;19.70;100.00
21869;BME280;11099;41.564;23.296;2022-09-01T01:52:01;97293.06;;;20.00;99.99
21869;BME280;11099;41.564;23.296;2022-09-01T01:54:29;97273.72;;;19.58;100.00
21869;BME280;11099;41.564;23.296;2022-09-01T01:56:57;97267.13;;;19.89;98.98
21869;BME280;11099;41.564;23.296;2022-09-01T01:59:23;97301.28;;;20.15;98.97
21869;BME280;11099;41.564;23.296;2022-09-01T02:01:49;97305.09;;;20.10;98.85
21869;BME280;11099;41.564;23.296;2022-09-01T02:04:17;97202.66;;;19.09;99.88
21869;BME280;11099;41.564;23.296;2022-09-01T02:06:45;97288.91;;;19.36;100.00
21869;BME280;11099;41.564;23.296;2022-09-01T02:09:13;97311.47;;;19.54;100.00
21869;BME280;11099;41.564;23.296;2022-09-01T02:11:40;97289.41;;;19.79;98.41
21869;BME280;11099;41.564;23.296;2022-09-01T02:14:07;97322.53;;;19.76;97.20
21869;BME280;11099;41.564;23.296;2022-09-01T02:16:34;97272.97;;;19.57;96.27
21869;BME280;11099;41.564;23.296;2022-09-01T02:19:01;97229.44;;;19.25;94.92
21869;BME280;11099;41.564;23.296;2022-09-01T02:21:28;97216.47;;;19.41;94.10
21869;BME280;11099;41.564;23.296;2022-09-01T02:23:59;97336.59;;;20.36;93.21
21869;BME280;11099;41.564;23.296;2022-09-01T02:26:28;97211.78;;;19.35;95.17
21869;BME280;11099;41.564;23.296;2022-09-01T02:28:58;97339.09;;;20.11;97.32
21869;BME280;11099;41.564;23.296;2022-09-01T02:31:26;97314.84;;;19.78;98.61
21869;BME280;11099;41.564;23.296;2022-09-01T02:33:52;97307.81;;;19.69;99.88
21869;BME280;11099;41.564;23.296;2022-09-01T02:36:19;97310.41;;;19.96;99.16
21869;BME280;11099;41.564;23.296;2022-09-01T02:38:46;97256.03;;;19.60;98.41
21869;BME280;11099;41.564;23.296;2022-09-01T02:41:13;97331.88;;;20.22;97.32
21869;BME280;11099;41.564;23.296;2022-09-01T02:43:40;97305.88;;;20.11;96.79
21869;BME280;11099;41.564;23.296;2022-09-01T02:46:08;97334.28;;;19.94;99.04
21869;BME280;11099;41.564;23.296;2022-09-01T02:48:37;97320.53;;;20.06;99.02
21869;BME280;11099;41.564;23.296;2022-09-01T02:51:10;97322.88;;;19.70;100.00
21869;BME280;11099;41.564;23.296;2022-09-01T02:53:37;97313.19;;;19.66;100.00
21869;BME280;11099;41.564;23.296;2022-09-01T02:56:05;97319.66;;;19.95;100.00
21869;BME280;11099;41.564;23.296;2022-09-01T02:58:35;97325.06;;;19.98;100.00
21869;BME280;11099;41.564;23.296;2022-09-01T03:01:25;97257.59;;;19.28;100.00
21869;BME280;11099;41.564;23.296;2022-09-01T03:03:56;97328.06;;;20.31;97.95
21869;BME280;11099;41.564;23.296;2022-09-01T03:06:22;97327.66;;;20.29;97.85
21869;BME280;11099;41.564;23.296;2022-09-01T03:08:50;97331.00;;;20.11;99.19
21869;BME280;11099;41.564;23.296;2022-09-01T03:11:16;97234.56;;;19.74;97.82
21869;BME280;11099;41.564;23.296;2022-09-01T03:13:43;97327.81;;;20.02;99.76
21869;BME280;11099;41.564;23.296;2022-09-01T03:16:09;97215.81;;;18.81;100.00
21869;BME280;11099;41.564;23.296;2022-09-01T03:18:36;97209.03;;;18.94;100.00
21869;BME280;11099;41.564;23.296;2022-09-01T03:21:03;97183.66;;;19.36;97.13
21869;BME280;11099;41.564;23.296;2022-09-01T03:23:30;97213.69;;;19.71;96.90
21869;BME280;11099;41.564;23.296;2022-09-01T03:25:56;97319.91;;;20.27;96.94
21869;BME280;11099;41.564;23.296;2022-09-01T03:28:22;97234.63;;;19.07;100.00
21869;BME280;11099;41.564;23.296;2022-09-01T03:30:50;97341.91;;;20.22;97.29
21869;BME280;11099;41.564;23.296;2022-09-01T03:33:18;97341.22;;;19.91;99.39
21869;BME280;11099;41.564;23.296;2022-09-01T03:35:44;97231.69;;;19.19;100.00
21869;BME280;11099;41.564;23.296;2022-09-01T03:38:11;97340.03;;;19.55;100.00
21869;BME280;11099;41.564;23.296;2022-09-01T03:40:39;97335.41;;;19.56;100.00
21869;BME280;11099;41.564;23.296;2022-09-01T03:43:07;97345.91;;;19.94;100.00
21869;BME280;11099;41.564;23.296;2022-09-01T03:45:39;97345.97;;;20.02;99.60
21869;BME280;11099;41.564;23.296;2022-09-01T03:48:06;97350.38;;;20.20;98.40
21869;BME280;11099;41.564;23.296;2022-09-01T03:50:37;97304.22;;;19.25;100.00
21869;BME280;11099;41.564;23.296;2022-09-01T03:53:09;97283.84;;;19.31;100.00
21869;BME280;11099;41.564;23.296;2022-09-01T03:55:35;97231.16;;;18.77;100.00
21869;BME280;11099;41.564;23.296;2022-09-01T03:58:05;97343.03;;;18.86;100.00
21869;BME280;11099;41.564;23.296;2022-09-01T04:00:33;97250.34;;;18.72;100.00
21869;BME280;11099;41.564;23.296;2022-09-01T04:03:01;97305.50;;;19.38;100.00
21869;BME280;11099;41.564;23.296;2022-09-01T04:05:28;97345.19;;;20.05;100.00
21869;BME280;11099;41.564;23.296;2022-09-01T04:07:56;97346.41;;;20.07;100.00
21869;BME280;11099;41.564;23.296;2022-09-01T04:10:22;97334.09;;;20.13;99.98
21869;BME280;11099;41.564;23.296;2022-09-01T04:12:49;97232.34;;;19.84;96.86
21869;BME280;11099;41.564;23.296;2022-09-01T04:15:16;97353.59;;;20.85;94.84
21869;BME280;11099;41.564;23.296;2022-09-01T04:17:45;97241.53;;;19.76;96.48
21869;BME280;11099;41.564;23.296;2022-09-01T04:20:38;97320.69;;;19.83;97.74
21869;BME280;11099;41.564;23.296;2022-09-01T04:23:30;97353.97;;;19.91;100.00
21869;BME280;11099;41.564;23.296;2022-09-01T04:25:59;97352.81;;;19.92;100.00
21869;BME280;11099;41.564;23.296;2022-09-01T04:28:38;97353.06;;;20.17;100.00
21869;BME280;11099;41.564;23.296;2022-09-01T04:31:07;97363.13;;;20.64;97.86
21869;BME280;11099;41.564;23.296;2022-09-01T04:33:36;97357.78;;;21.41;94.57
21869;BME280;11099;41.564;23.296;2022-09-01T04:36:14;97358.84;;;21.25;93.58
21869;BME280;11099;41.564;23.296;2022-09-01T04:38:44;97305.31;;;20.90;91.73
21869;BME280;11099;41.564;23.296;2022-09-01T04:41:11;97322.28;;;20.84;93.35
21869;BME280;11099;41.564;23.296;2022-09-01T04:43:43;97364.00;;;21.45;89.73
21869;BME280;11099;41.564;23.296;2022-09-01T04:46:09;97270.13;;;20.87;89.32
21869;BME280;11099;41.564;23.296;2022-09-01T04:48:37;97358.44;;;22.35;86.10
21869;BME280;11099;41.564;23.296;2022-09-01T04:51:07;97341.41;;;22.64;81.74
21869;BME280;11099;41.564;23.296;2022-09-01T04:53:38;97324.69;;;22.69;77.61
21869;BME280;11099;41.564;23.296;2022-09-01T04:56:06;97385.91;;;23.20;76.98
21869;BME280;11099;41.564;23.296;2022-09-01T04:58:34;97338.09;;;23.44;75.04
21869;BME280;11099;41.564;23.296;2022-09-01T05:01:06;97315.38;;;22.02;80.68
21869;BME280;11099;41.564;23.296;2022-09-01T05:03:37;97348.75;;;22.31;79.37
21869;BME280;11099;41.564;23.296;2022-09-01T05:06:03;97345.22;;;23.09;76.39
21869;BME280;11099;41.564;23.296;2022-09-01T05:08:29;97309.19;;;22.94;76.14
21869;BME280;11099;41.564;23.296;2022-09-01T05:10:56;97262.09;;;23.29;73.12
21869;BME280;11099;41.564;23.296;2022-09-01T05:13:22;97368.22;;;24.48;71.59
21869;BME280;11099;41.564;23.296;2022-09-01T05:16:01;97327.91;;;23.62;74.04
21869;BME280;11099;41.564;23.296;2022-09-01T05:18:28;97247.59;;;22.70;75.64
21869;BME280;11099;41.564;23.296;2022-09-01T05:20:53;97364.94;;;23.31;75.46
21869;BME280;11099;41.564;23.296;2022-09-01T05:23:20;97230.97;;;22.35;77.25
21869;BME280;11099;41.564;23.296;2022-09-01T05:25:49;97322.72;;;23.05;76.69
21869;BME280;11099;41.564;23.296;2022-09-01T05:28:17;97273.59;;;21.92;80.97
21869;BME280;11099;41.564;23.296;2022-09-01T05:30:44;97260.31;;;22.87;77.32
21869;BME280;11099;41.564;23.296;2022-09-01T05:33:11;97375.44;;;23.14;79.59
21869;BME280;11099;41.564;23.296;2022-09-01T05:35:42;97317.00;;;22.53;80.67
21869;BME280;11099;41.564;23.296;2022-09-01T05:38:17;97301.44;;;22.82;79.14
21869;BME280;11099;41.564;23.296;2022-09-01T05:40:43;97343.56;;;23.33;78.11
21869;BME280;11099;41.564;23.296;2022-09-01T05:43:11;97371.19;;;23.10;79.65
21869;BME280;11099;41.564;23.296;2022-09-01T05:45:41;97365.75;;;23.17;78.90
21869;BME280;11099;41.564;23.296;2022-09-01T05:48:11;97256.25;;;23.38;76.80
21869;BME280;11099;41.564;23.296;2022-09-01T05:50:41;97343.38;;;24.87;72.18
21869;BME280;11099;41.564;23.296;2022-09-01T05:53:08;97275.31;;;23.31;75.35
21869;BME280;11099;41.564;23.296;2022-09-01T05:55:40;97251.03;;;22.92;78.02
21869;BME280;11099;41.564;23.296;2022-09-01T05:58:09;97272.44;;;22.18;81.18
21869;BME280;11099;41.564;23.296;2022-09-01T06:00:39;97245.69;;;22.45;81.06
21869;BME280;11099;41.564;23.296;2022-09-01T06:03:05;97288.22;;;22.84;79.66
21869;BME280;11099;41.564;23.296;2022-09-01T06:05:34;97364.94;;;24.11;77.42
21869;BME280;11099;41.564;23.296;2022-09-01T06:08:04;97280.25;;;23.50;76.96
21869;BME280;11099;41.564;23.296;2022-09-01T06:10:31;97337.09;;;24.49;74.04
21869;BME280;11099;41.564;23.296;2022-09-01T06:12:59;97330.91;;;24.48;73.09
21869;BME280;11099;41.564;23.296;2022-09-01T06:15:28;97346.41;;;25.34;70.41
21869;BME280;11099;41.564;23.296;2022-09-01T06:17:56;97287.03;;;24.84;69.92
21869;BME280;11099;41.564;23.296;2022-09-01T06:20:22;97241.31;;;24.68;69.88
21869;BME280;11099;41.564;23.296;2022-09-01T06:22:47;97241.97;;;25.13;68.51
21869;BME280;11099;41.564;23.296;2022-09-01T06:25:14;97255.78;;;24.95;68.15
21869;BME280;11099;41.564;23.296;2022-09-01T06:27:43;97195.94;;;24.88;67.38
21869;BME280;11099;41.564;23.296;2022-09-01T06:30:11;97338.09;;;25.79;66.24
21869;BME280;11099;41.564;23.296;2022-09-01T06:32:42;97335.75;;;26.04;66.89
21869;BME280;11099;41.564;23.296;2022-09-01T06:35:13;97340.94;;;26.49;65.80
21869;BME280;11099;41.564;23.296;2022-09-01T06:37:41;97343.44;;;26.87;63.44
21869;BME280;11099;41.564;23.296;2022-09-01T06:40:12;97253.03;;;26.34;64.19
21869;BME280;11099;41.564;23.296;2022-09-01T06:42:49;97306.81;;;25.56;67.68
21869;BME280;11099;41.564;23.296;2022-09-01T06:45:19;97274.75;;;25.64;67.77
21869;BME280;11099;41.564;23.296;2022-09-01T06:47:45;97342.31;;;25.15;71.85
21869;BME280;11099;41.564;23.296;2022-09-01T06:50:13;97190.88;;;24.56;69.33
21869;BME280;11099;41.564;23.296;2022-09-01T06:52:43;97340.81;;;26.56;65.72
21869;BME280;11099;41.564;23.296;2022-09-01T06:55:13;97273.09;;;26.71;63.00
21869;BME280;11099;41.564;23.296;2022-09-01T06:57:40;97338.84;;;26.80;63.87
21869;BME280;11099;41.564;23.296;2022-09-01T07:00:12;97324.44;;;26.06;64.64
21869;BME280;11099;41.564;23.296;2022-09-01T07:02:53;97281.41;;;26.17;64.31
21869;BME280;11099;41.564;23.296;2022-09-01T07:05:19;97337.22;;;26.36;63.98
21869;BME280;11099;41.564;23.296;2022-09-01T07:07:47;97329.81;;;26.83;62.49
21869;BME280;11099;41.564;23.296;2022-09-01T07:10:15;97290.31;;;26.21;61.25
21869;BME280;11099;41.564;23.296;2022-09-01T07:12:45;97276.75;;;25.60;63.94
21869;BME280;11099;41.564;23.296;2022-09-01T07:15:12;97332.50;;;26.87;61.39
21869;BME280;11099;41.564;23.296;2022-09-01T07:17:42;97340.31;;;26.85;59.96
21869;BME280;11099;41.564;23.296;2022-09-01T07:20:08;97313.38;;;26.87;60.77
21869;BME280;11099;41.564;23.296;2022-09-01T07:22:35;97309.31;;;26.51;60.54
21869;BME280;11099;41.564;23.296;2022-09-01T07:25:01;97235.94;;;26.77;58.07
21869;BME280;11099;41.564;23.296;2022-09-01T07:27:26;97328.94;;;27.69;57.01
21869;BME280;11099;41.564;23.296;2022-09-01T07:29:53;97241.09;;;27.31;55.64
21869;BME280;11099;41.564;23.296;2022-09-01T07:32:21;97328.25;;;27.45;57.23
21869;BME280;11099;41.564;23.296;2022-09-01T07:34:47;97241.06;;;26.28;59.69
21869;BME280;11099;41.564;23.296;2022-09-01T07:37:13;97310.53;;;27.53;56.85
21869;BME280;11099;41.564;23.296;2022-09-01T07:39:39;97331.41;;;26.80;59.82
21869;BME280;11099;41.564;23.296;2022-09-01T07:42:16;97328.72;;;27.80;56.92
21869;BME280;11099;41.564;23.296;2022-09-01T07:44:42;97338.16;;;27.95;54.79
21869;BME280;11099;41.564;23.296;2022-09-01T07:47:09;97313.06;;;27.44;56.05
21869;BME280;11099;41.564;23.296;2022-09-01T07:49:35;97337.03;;;27.37;56.15
21869;BME280;11099;41.564;23.296;2022-09-01T07:52:03;97277.50;;;26.85;56.92
21869;BME280;11099;41.564;23.296;2022-09-01T07:54:29;97330.22;;;27.45;57.15
21869;BME280;11099;41.564;23.296;2022-09-01T07:56:55;97335.69;;;27.65;55.32
21869;BME280;11099;41.564;23.296;2022-09-01T07:59:21;97326.81;;;28.13;53.90
21869;BME280;11099;41.564;23.296;2022-09-01T08:01:47;97222.78;;;27.48;53.68
21869;BME280;11099;41.564;23.296;2022-09-01T08:04:13;97317.16;;;28.08;52.79
21869;BME280;11099;41.564;23.296;2022-09-01T08:06:39;97292.63;;;28.38;51.68
21869;BME280;11099;41.564;23.296;2022-09-01T08:09:05;97327.97;;;28.77;51.90
21869;BME280;11099;41.564;23.296;2022-09-01T08:11:35;97319.22;;;28.99;51.46
21869;BME280;11099;41.564;23.296;2022-09-01T08:14:00;97242.91;;;28.23;51.83
21869;BME280;11099;41.564;23.296;2022-09-01T08:16:28;97156.97;;;27.22;54.23
21869;BME280;11099;41.564;23.296;2022-09-01T08:18:55;97288.88;;;27.79;55.24
21869;BME280;11099;41.564;23.296;2022-09-01T08:21:22;97313.00;;;27.84;52.25
21869;BME280;11099;41.564;23.296;2022-09-01T08:23:53;97298.31;;;28.27;51.83
21869;BME280;11099;41.564;23.296;2022-09-01T08:26:22;97283.88;;;28.88;51.56
21869;BME280;11099;41.564;23.296;2022-09-01T08:28:48;97251.19;;;28.81;50.86
21869;BME280;11099;41.564;23.296;2022-09-01T08:31:16;97261.78;;;28.95;50.70
21869;BME280;11099;41.564;23.296;2022-09-01T08:33:43;97287.44;;;29.43;48.61
21869;BME280;11099;41.564;23.296;2022-09-01T08:36:12;97262.06;;;28.84;49.87
21869;BME280;11099;41.564;23.296;2022-09-01T08:38:40;97218.59;;;28.99;49.08
21869;BME280;11099;41.564;23.296;2022-09-01T08:41:16;97265.41;;;29.47;47.99
21869;BME280;11099;41.564;23.296;2022-09-01T08:43:58;97276.97;;;29.80;48.10
21869;BME280;11099;41.564;23.296;2022-09-01T08:46:32;97282.06;;;29.52;48.25
21869;BME280;11099;41.564;23.296;2022-09-01T08:49:22;97274.88;;;29.58;48.09
21869;BME280;11099;41.564;23.296;2022-09-01T08:54:25;97280.47;;;29.93;45.93
21869;BME280;11099;41.564;23.296;2022-09-01T08:56:57;97259.69;;;30.05;45.68
21869;BME280;11099;41.564;23.296;2022-09-01T08:59:25;97268.13;;;30.10;45.96
21869;BME280;11099;41.564;23.296;2022-09-01T09:02:14;97270.81;;;29.88;45.73
21869;BME280;11099;41.564;23.296;2022-09-01T09:10:59;97247.41;;;30.09;45.31
21869;BME280;11099;41.564;23.296;2022-09-01T09:13:57;97245.78;;;30.47;43.20
21869;BME280;11099;41.564;23.296;2022-09-01T09:16:34;97219.50;;;30.24;45.00
21869;BME280;11099;41.564;23.296;2022-09-01T09:19:06;97242.84;;;30.76;42.19
21869;BME280;11099;41.564;23.296;2022-09-01T09:26:39;97227.38;;;30.34;42.86
21869;BME280;11099;41.564;23.296;2022-09-01T09:29:06;97227.75;;;30.11;43.51
21869;BME280;11099;41.564;23.296;2022-09-01T09:31:35;97213.25;;;30.10;42.89
21869;BME280;11099;41.564;23.296;2022-09-01T09:34:37;97221.97;;;29.71;44.95
21869;BME280;11099;41.564;23.296;2022-09-01T09:37:29;97224.69;;;29.96;44.22
21869;BME280;11099;41.564;23.296;2022-09-01T09:42:27;97221.38;;;30.49;43.16
21869;BME280;11099;41.564;23.296;2022-09-01T09:44:52;97195.69;;;30.55;44.16
21869;BME280;11099;41.564;23.296;2022-09-01T09:47:41;97208.81;;;31.04;42.42
21869;BME280;11099;41.564;23.296;2022-09-01T09:50:27;97214.06;;;31.11;41.05
21869;BME280;11099;41.564;23.296;2022-09-01T09:53:25;97181.16;;;30.99;42.21
21869;BME280;11099;41.564;23.296;2022-09-01T09:58:41;97215.19;;;30.70;43.40
21869;BME280;11099;41.564;23.296;2022-09-01T10:01:11;97214.47;;;31.01;43.13
21869;BME280;11099;41.564;23.296;2022-09-01T10:03:52;97197.16;;;30.91;42.83
21869;BME280;11099;41.564;23.296;2022-09-01T10:06:29;97195.91;;;30.83;42.84
21869;BME280;11099;41.564;23.296;2022-09-01T10:08:56;97196.78;;;30.80;44.28
21869;BME280;11099;41.564;23.296;2022-09-01T10:11:39;97194.47;;;30.78;43.44
21869;BME280;11099;41.564;23.296;2022-09-01T10:14:10;97199.81;;;31.26;43.06
21869;BME280;11099;41.564;23.296;2022-09-01T10:16:39;97182.09;;;30.74;43.69
21869;BME280;11099;41.564;23.296;2022-09-01T10:19:10;97191.16;;;31.14;42.73
21869;BME280;11099;41.564;23.296;2022-09-01T10:21:39;97168.53;;;30.79;44.13
21869;BME280;11099;41.564;23.296;2022-09-01T10:26:52;97194.28;;;30.94;42.22
21869;BME280;11099;41.564;23.296;2022-09-01T10:29:31;97121.50;;;30.55;42.89
21869;BME280;11099;41.564;23.296;2022-09-01T10:31:59;97175.81;;;31.26;42.43
21869;BME280;11099;41.564;23.296;2022-09-01T10:34:29;97172.31;;;30.73;42.08
21869;BME280;11099;41.564;23.296;2022-09-01T10:36:57;97180.69;;;30.69;43.09
21869;BME280;11099;41.564;23.296;2022-09-01T10:39:23;97065.00;;;30.23;41.86
21869;BME280;11099;41.564;23.296;2022-09-01T10:41:50;97189.47;;;31.08;42.08
21869;BME280;11099;41.564;23.296;2022-09-01T10:44:24;97107.78;;;30.55;41.75
21869;BME280;11099;41.564;23.296;2022-09-01T10:46:55;97189.28;;;31.02;42.00
21869;BME280;11099;41.564;23.296;2022-09-01T10:52:10;97136.59;;;31.35;41.57
21869;BME280;11099;41.564;23.296;2022-09-01T10:57:18;97171.78;;;32.08;40.13
21869;BME280;11099;41.564;23.296;2022-09-01T10:59:46;97154.06;;;31.50;40.54
21869;BME280;11099;41.564;23.296;2022-09-01T11:02:18;97172.66;;;31.37;40.52
21869;BME280;11099;41.564;23.296;2022-09-01T11:09:45;97142.72;;;31.88;38.75
21869;BME280;11099;41.564;23.296;2022-09-01T11:12:35;97144.72;;;32.15;38.82
21869;BME280;11099;41.564;23.296;2022-09-01T11:15:33;97148.53;;;31.99;38.58
21869;BME280;11099;41.564;23.296;2022-09-01T11:17:59;97108.81;;;31.42;38.72
21869;BME280;11099;41.564;23.296;2022-09-01T11:23:25;97138.09;;;31.76;38.12
21869;BME280;11099;41.564;23.296;2022-09-01T11:25:58;97135.97;;;31.89;37.88
21869;BME280;11099;41.564;23.296;2022-09-01T11:30:59;97129.56;;;32.02;38.03
21869;BME280;11099;41.564;23.296;2022-09-01T11:36:45;97127.91;;;32.41;37.82
21869;BME280;11099;41.564;23.296;2022-09-01T11:42:15;97099.53;;;31.67;38.42
21869;BME280;11099;41.564;23.296;2022-09-01T11:45:06;97111.47;;;31.73;37.85
21869;BME280;11099;41.564;23.296;2022-09-01T11:47:40;97116.13;;;31.94;38.16
21869;BME280;11099;41.564;23.296;2022-09-01T11:50:27;97104.63;;;31.96;37.33
21869;BME280;11099;41.564;23.296;2022-09-01T11:55:51;97099.69;;;31.63;38.60
21869;BME280;11099;41.564;23.296;2022-09-01T12:00:53;97092.09;;;31.95;37.60
21869;BME280;11099;41.564;23.296;2022-09-01T12:03:21;97087.81;;;31.94;38.39
21869;BME280;11099;41.564;23.296;2022-09-01T12:06:04;97094.41;;;31.87;37.54
21869;BME280;11099;41.564;23.296;2022-09-01T12:08:35;97076.97;;;31.99;37.36
21869;BME280;11099;41.564;23.296;2022-09-01T12:11:47;97088.13;;;32.05;37.64
21869;BME280;11099;41.564;23.296;2022-09-01T12:13:58;97067.75;;;32.39;36.99
21869;BME280;11099;41.564;23.296;2022-09-01T12:16:25;97032.41;;;32.29;36.55
21869;BME280;11099;41.564;23.296;2022-09-01T12:18:52;97033.34;;;32.07;36.88
21869;BME280;11099;41.564;23.296;2022-09-01T12:23:49;97024.44;;;32.40;35.94
21869;BME280;11099;41.564;23.296;2022-09-01T12:26:19;97079.94;;;32.66;35.91
21869;BME280;11099;41.564;23.296;2022-09-01T12:28:46;97072.44;;;32.66;36.97
21869;BME280;11099;41.564;23.296;2022-09-01T12:31:18;97049.41;;;32.18;36.27
21869;BME280;11099;41.564;23.296;2022-09-01T12:33:45;97061.63;;;32.35;36.56
21869;BME280;11099;41.564;23.296;2022-09-01T12:36:24;97050.31;;;32.33;36.61
21869;BME280;11099;41.564;23.296;2022-09-01T12:38:55;97051.38;;;32.36;36.11
21869;BME280;11099;41.564;23.296;2022-09-01T12:41:34;97057.81;;;32.33;35.65
21869;BME280;11099;41.564;23.296;2022-09-01T12:44:26;97065.78;;;32.03;35.82
21869;BME280;11099;41.564;23.296;2022-09-01T12:46:53;97064.81;;;32.52;35.46
21869;BME280;11099;41.564;23.296;2022-09-01T12:49:23;97056.28;;;32.41;36.37
21869;BME280;11099;41.564;23.296;2022-09-01T12:54:38;97068.94;;;32.57;35.59
21869;BME280;11099;41.564;23.296;2022-09-01T12:57:05;97026.78;;;32.05;35.70
21869;BME280;11099;41.564;23.296;2022-09-01T12:59:31;96923.75;;;31.51;36.38
21869;BME280;11099;41.564;23.296;2022-09-01T13:01:57;96969.28;;;32.07;35.85
21869;BME280;11099;41.564;23.296;2022-09-01T13:04:26;97052.59;;;32.95;34.93
21869;BME280;11099;41.564;23.296;2022-09-01T13:06:55;97056.75;;;32.91;35.10
21869;BME280;11099;41.564;23.296;2022-09-01T13:09:21;97014.72;;;32.63;35.63
21869;BME280;11099;41.564;23.296;2022-09-01T13:11:47;97049.47;;;32.69;36.22
21869;BME280;11099;41.564;23.296;2022-09-01T13:14:14;97043.97;;;32.69;36.40
21869;BME280;11099;41.564;23.296;2022-09-01T13:16:40;97023.88;;;32.69;35.38
21869;BME280;11099;41.564;23.296;2022-09-01T13:19:07;97014.38;;;32.37;36.05
21869;BME280;11099;41.564;23.296;2022-09-01T13:21:34;97051.25;;;32.12;36.19
21869;BME280;11099;41.564;23.296;2022-09-01T13:24:04;97026.94;;;31.73;37.34
21869;BME280;11099;41.564;23.296;2022-09-01T13:26:31;97045.44;;;32.10;38.01
21869;BME280;11099;41.564;23.296;2022-09-01T13:28:57;96987.94;;;31.75;37.82
21869;BME280;11099;41.564;23.296;2022-09-01T13:31:24;96922.69;;;31.30;38.47
21869;BME280;11099;41.564;23.296;2022-09-01T13:33:49;97011.81;;;31.96;38.80
21869;BME280;11099;41.564;23.296;2022-09-01T13:36:15;96992.06;;;31.61;39.57
21869;BME280;11099;41.564;23.296;2022-09-01T13:38:41;97041.94;;;32.00;38.77
21869;BME280;11099;41.564;23.296;2022-09-01T13:41:07;96981.69;;;31.84;37.92
21869;BME280;11099;41.564;23.296;2022-09-01T13:43:35;97021.41;;;32.19;38.91
21869;BME280;11099;41.564;23.296;2022-09-01T13:46:01;97010.88;;;32.09;38.82
21869;BME280;11099;41.564;23.296;2022-09-01T13:48:27;97025.72;;;32.11;38.61
21869;BME280;11099;41.564;23.296;2022-09-01T13:50:53;97027.84;;;32.16;39.34
21869;BME280;11099;41.564;23.296;2022-09-01T13:53:20;97030.59;;;32.16;39.66
21869;BME280;11099;41.564;23.296;2022-09-01T13:55:47;97010.56;;;31.97;38.91
21869;BME280;11099;41.564;23.296;2022-09-01T13:58:13;96917.81;;;31.34;38.50
21869;BME280;11099;41.564;23.296;2022-09-01T14:00:44;96976.66;;;31.82;39.07